createdAt,value
2023-05-06T00:00:25.654Z,62.49
2023-05-06T00:03:12.068Z,62.61
2023-05-06T00:05:39.744Z,62.48
2023-05-06T00:08:07.254Z,62.60
2023-05-06T00:10:34.962Z,62.44
2023-05-06T00:13:02.613Z,62.33
2023-05-06T00:15:32.011Z,62.40
2023-05-06T00:18:00.799Z,62.53
2023-05-06T00:20:29.357Z,62.93
2023-05-06T00:22:56.908Z,63.49
2023-05-06T00:25:24.699Z,63.35
2023-05-06T00:27:53.460Z,63.71
2023-05-06T00:30:21.032Z,63.80
2023-05-06T00:32:48.639Z,63.86
2023-05-06T00:35:16.264Z,64.01
2023-05-06T00:37:46.776Z,64.05
2023-05-06T00:40:14.398Z,63.94
2023-05-06T00:42:41.958Z,63.86
2023-05-06T00:45:10.283Z,64.20
2023-05-06T00:47:38.072Z,64.37
2023-05-06T00:50:06.391Z,64.27
2023-05-06T00:52:34.173Z,64.40
2023-05-06T00:55:01.811Z,64.56
2023-05-06T00:57:29.421Z,64.97
2023-05-06T00:59:57.029Z,65.18
2023-05-06T01:02:28.482Z,65.58
2023-05-06T01:05:04.716Z,65.50
2023-05-06T01:07:50.680Z,65.81
2023-05-06T01:10:49.804Z,65.84
2023-05-06T01:13:24.971Z,65.88
2023-05-06T01:15:59.220Z,66.29
2023-05-06T01:18:27.435Z,66.31
2023-05-06T01:20:55.391Z,66.12
2023-05-06T01:23:22.961Z,66.25
2023-05-06T01:25:50.674Z,66.05
2023-05-06T01:28:18.378Z,66.16
2023-05-06T01:31:00.952Z,66.39
2023-05-06T01:33:48.873Z,66.41
2023-05-06T01:36:26.443Z,66.66
2023-05-06T01:39:09.129Z,66.83
2023-05-06T01:41:40.200Z,66.88
2023-05-06T01:44:08.817Z,67.21
2023-05-06T01:46:36.503Z,67.18
2023-05-06T01:49:06.163Z,67.19
2023-05-06T01:51:34.031Z,67.24
2023-05-06T01:54:02.399Z,67.22
2023-05-06T01:56:30.001Z,67.25
2023-05-06T01:58:59.249Z,67.13
2023-05-06T02:01:27.304Z,67.05
2023-05-06T02:03:55.036Z,67.38
2023-05-06T02:06:22.739Z,67.60
2023-05-06T02:08:50.283Z,67.64
2023-05-06T02:11:17.931Z,67.99
2023-05-06T02:13:45.493Z,67.70
2023-05-06T02:16:13.061Z,67.89
2023-05-06T02:18:40.591Z,68.22
2023-05-06T02:21:09.986Z,68.15
2023-05-06T02:23:37.636Z,68.14
2023-05-06T02:26:05.254Z,68.34
2023-05-06T02:28:32.790Z,68.64
2023-05-06T02:31:00.354Z,68.28
2023-05-06T02:33:28.041Z,68.23
2023-05-06T02:35:55.601Z,68.39
2023-05-06T02:38:23.891Z,68.73
2023-05-06T02:40:51.409Z,68.70
2023-05-06T02:43:19.081Z,69.09
2023-05-06T02:45:46.641Z,68.84
2023-05-06T02:48:14.181Z,68.81
2023-05-06T02:50:41.765Z,68.94
2023-05-06T02:53:09.330Z,68.87
2023-05-06T02:55:36.893Z,69.13
2023-05-06T02:58:04.753Z,69.20
2023-05-06T03:00:32.260Z,68.86
2023-05-06T03:02:59.951Z,69.03
2023-05-06T03:05:27.528Z,69.13
2023-05-06T03:07:55.057Z,68.99
2023-05-06T03:10:22.590Z,68.95
2023-05-06T03:12:50.188Z,68.97
2023-05-06T03:15:17.763Z,68.96
2023-05-06T03:17:47.413Z,68.87
2023-05-06T03:20:15.193Z,69.06
2023-05-06T03:22:42.743Z,68.97
2023-05-06T03:25:10.489Z,68.99
2023-05-06T03:27:38.164Z,68.92
2023-05-06T03:30:06.192Z,69.02
2023-05-06T03:32:34.085Z,69.01
2023-05-06T03:35:01.713Z,69.02
2023-05-06T03:37:29.247Z,68.83
2023-05-06T03:39:56.768Z,69.04
2023-05-06T03:42:24.384Z,68.78
2023-05-06T03:44:51.933Z,68.40
2023-05-06T03:47:19.777Z,68.62
2023-05-06T03:49:47.309Z,68.29
2023-05-06T03:52:14.909Z,68.09
2023-05-06T03:54:42.491Z,67.84
2023-05-06T03:57:10.000Z,67.73
2023-05-06T03:59:37.527Z,67.85
2023-05-06T04:02:05.088Z,67.56
2023-05-06T04:04:32.679Z,67.26
2023-05-06T04:07:00.611Z,67.15
2023-05-06T04:09:28.134Z,66.87
2023-05-06T04:11:55.666Z,66.78
2023-05-06T04:14:23.180Z,66.62
2023-05-06T04:16:50.806Z,66.51
2023-05-06T04:19:18.338Z,66.43
2023-05-06T04:21:45.897Z,66.04
2023-05-06T04:24:13.421Z,65.92
2023-05-06T04:26:40.944Z,65.65
2023-05-06T04:29:09.076Z,65.86
2023-05-06T04:31:36.661Z,65.56
2023-05-06T04:34:04.263Z,65.26
2023-05-06T04:36:31.856Z,65.06
2023-05-06T04:38:59.377Z,64.85
2023-05-06T04:41:26.937Z,64.80
2023-05-06T04:43:54.465Z,64.52
2023-05-06T04:46:22.115Z,64.40
2023-05-06T04:48:49.726Z,64.05
2023-05-06T04:51:17.382Z,63.82
2023-05-06T04:53:44.933Z,63.39
2023-05-06T04:56:12.470Z,63.21
2023-05-06T04:58:39.987Z,63.30
2023-05-06T05:01:09.221Z,62.71
2023-05-06T05:03:36.940Z,62.53
2023-05-06T05:06:04.619Z,62.19
2023-05-06T05:08:32.130Z,61.79
2023-05-06T05:10:59.677Z,61.41
2023-05-06T05:13:27.231Z,61.44
2023-05-06T05:15:55.105Z,61.27
2023-05-06T05:18:22.917Z,60.91
2023-05-06T05:20:50.443Z,60.59
2023-05-06T05:23:17.952Z,60.15
2023-05-06T05:25:45.478Z,59.65
2023-05-06T05:28:13.081Z,59.94
2023-05-06T05:30:40.638Z,59.69
2023-05-06T05:33:08.255Z,59.57
2023-05-06T05:35:35.925Z,59.37
2023-05-06T05:38:03.444Z,58.89
2023-05-06T05:40:30.971Z,58.71
2023-05-06T05:42:58.973Z,57.84
2023-05-06T05:45:26.526Z,57.42
2023-05-06T05:47:54.198Z,56.80
2023-05-06T05:50:21.964Z,56.12
2023-05-06T05:52:49.492Z,56.00
2023-05-06T05:55:17.068Z,55.54
2023-05-06T05:57:44.618Z,55.01
2023-05-06T06:00:13.570Z,54.17
2023-05-06T06:02:41.475Z,53.20
2023-05-06T06:05:09.384Z,52.83
2023-05-06T06:07:37.549Z,52.55
2023-05-06T06:10:05.958Z,52.87
2023-05-06T06:12:33.527Z,52.87
2023-05-06T06:15:01.057Z,52.42
2023-05-06T06:17:28.663Z,52.72
2023-05-06T06:19:58.446Z,52.02
2023-05-06T06:22:25.966Z,50.86
2023-05-06T06:24:53.642Z,51.15
2023-05-06T06:27:21.189Z,50.75
2023-05-06T06:29:48.773Z,51.01
2023-05-06T06:32:16.619Z,51.34
2023-05-06T06:34:44.125Z,50.87
2023-05-06T06:37:12.103Z,50.38
2023-05-06T06:39:39.640Z,49.92
2023-05-06T06:42:07.188Z,48.92
2023-05-06T06:44:36.057Z,48.31
2023-05-06T06:47:03.648Z,47.79
2023-05-06T06:49:31.420Z,48.09
2023-05-06T06:51:58.931Z,47.65
2023-05-06T06:54:26.520Z,47.53
2023-05-06T06:56:54.948Z,47.48
2023-05-06T06:59:22.516Z,46.33
2023-05-06T07:01:50.793Z,46.06
2023-05-06T07:04:18.529Z,45.81
2023-05-06T07:06:46.185Z,45.44
2023-05-06T07:09:13.709Z,45.03
2023-05-06T07:11:41.314Z,44.82
2023-05-06T07:14:08.846Z,44.47
2023-05-06T07:16:36.457Z,44.49
2023-05-06T07:19:03.992Z,43.88
2023-05-06T07:21:31.547Z,43.93
2023-05-06T07:23:59.410Z,43.91
2023-05-06T07:26:27.033Z,44.20
2023-05-06T07:28:54.674Z,44.33
2023-05-06T07:31:22.223Z,43.83
2023-05-06T07:33:49.984Z,44.18
2023-05-06T07:36:17.570Z,43.96
2023-05-06T07:38:45.094Z,44.28
2023-05-06T07:41:12.647Z,43.70
2023-05-06T07:43:40.159Z,43.66
2023-05-06T07:46:07.951Z,43.50
2023-05-06T07:48:35.631Z,43.67
2023-05-06T07:51:03.837Z,43.61
2023-05-06T07:53:31.363Z,42.87
2023-05-06T07:55:58.989Z,42.92
2023-05-06T07:58:26.520Z,42.85
2023-05-06T08:00:54.249Z,43.27
2023-05-06T08:03:21.961Z,43.50
2023-05-06T08:05:53.235Z,43.67
2023-05-06T08:08:22.170Z,43.11
2023-05-06T08:10:49.699Z,43.70
2023-05-06T08:13:17.262Z,43.92
2023-05-06T08:15:44.969Z,43.95
2023-05-06T08:18:21.475Z,44.01
2023-05-06T08:20:50.657Z,44.41
2023-05-06T08:23:18.316Z,44.64
2023-05-06T08:25:45.912Z,44.92
2023-05-06T08:28:13.491Z,44.94
2023-05-06T08:30:41.006Z,44.75
2023-05-06T08:33:08.583Z,45.24
2023-05-06T08:35:36.167Z,45.38
2023-05-06T08:38:03.719Z,45.02
2023-05-06T08:40:31.482Z,45.26
2023-05-06T08:42:59.988Z,44.88
2023-05-06T08:45:29.499Z,44.88
2023-05-06T08:47:57.276Z,44.47
2023-05-06T08:50:25.608Z,44.18
2023-05-06T08:52:53.210Z,44.29
2023-05-06T08:55:22.333Z,43.80
2023-05-06T08:57:52.592Z,43.78
2023-05-06T09:00:20.280Z,43.41
2023-05-06T09:02:47.970Z,42.87
2023-05-06T09:05:15.590Z,42.92
2023-05-06T09:07:43.129Z,42.38
2023-05-06T09:10:14.988Z,42.10
2023-05-06T09:12:42.572Z,41.04
2023-05-06T09:15:11.165Z,40.44
2023-05-06T09:17:39.042Z,40.60
2023-05-06T09:20:07.245Z,40.16
2023-05-06T09:22:38.553Z,39.39
2023-05-06T09:25:07.065Z,39.14
2023-05-06T09:27:35.572Z,38.59
2023-05-06T09:30:06.206Z,38.70
2023-05-06T09:32:35.735Z,38.59
2023-05-06T09:35:05.540Z,39.05
2023-05-06T09:37:33.129Z,39.67
2023-05-06T09:40:00.883Z,40.58
2023-05-06T09:42:29.666Z,41.58
2023-05-06T09:45:01.540Z,43.20
2023-05-06T09:47:33.980Z,45.48
2023-05-06T09:50:03.524Z,46.92
2023-05-06T09:52:31.198Z,48.75
2023-05-06T09:54:59.691Z,50.53
2023-05-06T09:57:28.831Z,53.51
2023-05-06T09:59:58.140Z,54.19
2023-05-06T10:02:27.296Z,55.28
2023-05-06T10:04:56.720Z,58.66
2023-05-06T10:07:25.623Z,58.81
2023-05-06T10:09:54.551Z,60.57
2023-05-06T10:12:22.478Z,63.03
2023-05-06T10:21:49.661Z,67.18
2023-05-06T10:24:18.499Z,68.14
2023-05-06T10:26:46.071Z,68.85
2023-05-06T10:29:13.778Z,69.26
2023-05-06T10:31:48.149Z,70.20
2023-05-06T10:34:19.370Z,70.93
2023-05-06T10:36:48.751Z,72.03
2023-05-06T10:39:16.948Z,72.91
2023-05-06T10:41:44.664Z,72.75
2023-05-06T10:44:12.299Z,72.52
2023-05-06T10:47:00.130Z,72.80
2023-05-06T10:49:27.789Z,73.22
2023-05-06T10:52:15.488Z,73.30
2023-05-06T10:54:51.159Z,73.83
2023-05-06T10:57:19.369Z,73.90
2023-05-06T10:59:47.496Z,74.21
2023-05-06T11:02:19.635Z,73.87
2023-05-06T11:04:51.760Z,74.32
2023-05-06T11:07:23.983Z,74.42
2023-05-06T11:09:59.972Z,74.49
2023-05-06T11:12:46.316Z,74.91
2023-05-06T11:15:38.130Z,75.59
2023-05-06T11:18:24.199Z,76.29
2023-05-06T11:21:11.809Z,77.14
2023-05-06T11:23:42.271Z,77.35
2023-05-06T11:26:11.198Z,77.45
2023-05-06T11:28:39.683Z,77.20
2023-05-06T11:31:08.213Z,77.22
2023-05-06T11:33:37.229Z,77.14
2023-05-06T11:36:05.442Z,77.62
2023-05-06T11:38:50.544Z,77.40
2023-05-06T11:41:19.218Z,77.84
2023-05-06T11:43:47.939Z,77.91
2023-05-06T11:46:15.858Z,77.76
2023-05-06T11:48:43.707Z,78.04
2023-05-06T11:51:11.275Z,78.54
2023-05-06T11:53:38.829Z,78.87
2023-05-06T11:56:06.920Z,78.97
2023-05-06T11:58:34.606Z,79.14
2023-05-06T12:01:04.297Z,79.31
2023-05-06T12:03:33.190Z,79.47
2023-05-06T12:06:01.409Z,79.38
2023-05-06T12:08:34.385Z,79.45
2023-05-06T12:11:08.035Z,79.85
2023-05-06T12:13:40.178Z,80.09
2023-05-06T12:16:08.727Z,80.17
2023-05-06T12:18:37.206Z,80.69
2023-05-06T12:21:04.962Z,81.02
2023-05-06T12:23:32.587Z,81.07
2023-05-06T12:26:05.694Z,81.21
2023-05-06T12:28:35.359Z,81.42
2023-05-06T12:31:22.926Z,81.52
2023-05-06T12:33:50.787Z,81.46
2023-05-06T12:36:19.006Z,81.21
2023-05-06T12:38:54.700Z,81.49
2023-05-06T12:41:34.162Z,82.60
2023-05-06T12:44:01.759Z,83.92
2023-05-06T12:46:29.426Z,84.95
2023-05-06T12:49:01.116Z,84.84
2023-05-06T12:51:29.662Z,84.34
2023-05-06T12:53:57.183Z,84.12
2023-05-06T12:56:25.000Z,85.03
2023-05-06T12:59:02.813Z,85.66
2023-05-06T13:01:30.395Z,85.38
2023-05-06T13:03:57.972Z,85.19
2023-05-06T13:06:25.532Z,85.03
2023-05-06T13:08:53.068Z,84.79
2023-05-06T13:11:20.753Z,84.78
2023-05-06T13:13:48.301Z,84.83
2023-05-06T13:16:16.072Z,84.64
2023-05-06T13:18:43.687Z,84.52
2023-05-06T13:21:11.213Z,84.82
2023-05-06T13:23:38.734Z,84.91
2023-05-06T13:26:06.446Z,84.99
2023-05-06T13:28:34.244Z,84.72
2023-05-06T13:31:01.822Z,84.57
2023-05-06T13:33:29.443Z,84.67
2023-05-06T13:35:57.516Z,84.52
2023-05-06T13:38:25.090Z,84.57
2023-05-06T13:40:54.112Z,84.25
2023-05-06T13:43:22.663Z,84.19
2023-05-06T13:45:50.423Z,83.89
2023-05-06T13:48:18.117Z,83.56
2023-05-06T13:50:46.428Z,82.98
2023-05-06T13:53:16.745Z,82.60
2023-05-06T13:55:44.374Z,81.90
2023-05-06T13:58:12.042Z,80.72
2023-05-06T14:00:39.567Z,78.93
2023-05-06T14:03:07.158Z,78.50
2023-05-06T14:05:35.480Z,77.90
2023-05-06T14:08:03.409Z,77.53
2023-05-06T14:10:30.997Z,77.63
2023-05-06T14:12:58.578Z,78.11
2023-05-06T14:15:26.124Z,78.31
2023-05-06T14:17:53.696Z,77.82
2023-05-06T14:20:21.388Z,77.13
2023-05-06T14:22:48.880Z,76.61
2023-05-06T14:25:16.473Z,75.88
2023-05-06T14:27:44.225Z,75.31
2023-05-06T14:30:12.234Z,75.37
2023-05-06T14:32:39.763Z,76.00
2023-05-06T14:35:08.242Z,77.06
2023-05-06T14:37:35.960Z,77.04
2023-05-06T14:40:05.484Z,77.02
2023-05-06T14:42:32.991Z,77.11
2023-05-06T14:45:00.529Z,76.75
2023-05-06T14:47:28.067Z,75.96
2023-05-06T14:49:55.628Z,75.42
2023-05-06T14:52:23.161Z,72.77
2023-05-06T14:54:50.734Z,67.43
2023-05-06T14:57:18.304Z,64.00
2023-05-06T14:59:45.842Z,62.98
2023-05-06T15:02:13.360Z,60.52
2023-05-06T15:04:40.935Z,57.29
2023-05-06T15:07:08.444Z,58.62
2023-05-06T15:09:35.973Z,59.31
2023-05-06T15:12:03.738Z,59.82
2023-05-06T15:14:31.249Z,60.15
2023-05-06T15:16:58.902Z,60.73
2023-05-06T15:19:26.570Z,62.39
2023-05-06T15:21:54.068Z,62.91
2023-05-06T15:24:21.750Z,60.97
2023-05-06T15:26:49.501Z,59.41
2023-05-06T15:29:17.086Z,60.41
2023-05-06T15:31:45.084Z,60.44
2023-05-06T15:34:13.544Z,62.24
2023-05-06T15:36:41.520Z,63.76
2023-05-06T15:39:09.278Z,65.25
2023-05-06T15:41:38.290Z,65.93
2023-05-06T15:44:06.537Z,67.47
2023-05-06T15:46:34.394Z,68.75
2023-05-06T15:49:29.576Z,69.31
2023-05-06T15:51:49.517Z,69.76
2023-05-06T15:54:17.052Z,69.78
2023-05-06T15:56:45.587Z,70.09
2023-05-06T15:59:13.364Z,70.11
2023-05-06T16:02:24.467Z,71.20
2023-05-06T16:04:29.862Z,71.82
2023-05-06T16:06:57.637Z,72.40
2023-05-06T16:09:25.225Z,72.81
2023-05-06T16:11:52.753Z,71.81
2023-05-06T16:14:20.764Z,71.23
2023-05-06T16:16:48.362Z,71.28
2023-05-06T16:19:15.905Z,70.99
2023-05-06T16:21:43.418Z,71.26
2023-05-06T16:24:10.981Z,71.09
2023-05-06T16:26:38.522Z,71.13
2023-05-06T16:29:06.229Z,70.77
2023-05-06T16:31:33.854Z,71.00
2023-05-06T16:34:01.440Z,71.13
2023-05-06T16:36:28.988Z,71.65
2023-05-06T16:38:56.495Z,71.84
2023-05-06T16:41:24.141Z,71.39
2023-05-06T16:43:51.662Z,69.96
2023-05-06T16:46:19.664Z,67.71
2023-05-06T16:48:48.155Z,67.54
2023-05-06T16:51:15.814Z,67.30
2023-05-06T16:53:43.371Z,66.69
2023-05-06T16:56:10.988Z,65.28
2023-05-06T16:58:38.593Z,62.79
2023-05-06T17:01:06.486Z,62.26
2023-05-06T17:03:34.733Z,62.24
2023-05-06T17:06:02.386Z,63.00
2023-05-06T17:11:01.435Z,65.28
2023-05-06T17:13:29.649Z,66.29
2023-05-06T17:15:57.166Z,67.31
2023-05-06T17:18:24.692Z,68.06
2023-05-06T17:20:56.491Z,69.20
2023-05-06T17:23:25.047Z,70.22
2023-05-06T17:25:52.598Z,71.27
2023-05-06T17:28:20.152Z,72.16
2023-05-06T17:30:47.806Z,72.74
2023-05-06T17:33:15.433Z,72.69
2023-05-06T17:35:43.020Z,73.48
2023-05-06T17:38:11.815Z,73.89
2023-05-06T17:40:39.480Z,74.55
2023-05-06T17:43:07.020Z,74.56
2023-05-06T17:45:34.593Z,74.66
2023-05-06T17:48:02.206Z,75.35
2023-05-06T17:50:29.967Z,76.03
2023-05-06T17:52:57.527Z,75.85
2023-05-06T17:55:25.171Z,75.85
2023-05-06T17:57:52.820Z,75.71
2023-05-06T18:00:20.809Z,76.20
2023-05-06T18:02:48.524Z,76.89
2023-05-06T18:05:16.995Z,77.10
2023-05-06T18:07:44.585Z,77.56
2023-05-06T18:10:12.161Z,78.15
2023-05-06T18:12:39.910Z,78.57
2023-05-06T18:15:08.241Z,78.55
2023-05-06T18:17:36.306Z,78.77
2023-05-06T18:20:04.519Z,79.87
2023-05-06T18:22:32.342Z,79.24
2023-05-06T18:24:59.915Z,79.55
2023-05-06T18:27:27.466Z,80.08
2023-05-06T18:29:55.125Z,80.13
2023-05-06T18:32:22.695Z,80.57
2023-05-06T18:34:50.288Z,81.11
2023-05-06T18:37:17.965Z,82.02
2023-05-06T18:39:45.722Z,82.40
2023-05-06T18:42:13.344Z,82.93
2023-05-06T18:44:42.665Z,83.33
2023-05-06T18:47:10.266Z,83.31
2023-05-06T18:49:37.949Z,83.54
2023-05-06T18:52:05.533Z,83.52
2023-05-06T18:54:33.147Z,83.70
2023-05-06T18:57:00.986Z,83.41
2023-05-06T18:59:28.613Z,83.46
2023-05-06T19:01:56.179Z,83.77
2023-05-06T19:04:24.822Z,83.41
2023-05-06T19:06:52.442Z,83.26
2023-05-06T19:09:20.104Z,82.79
2023-05-06T19:11:47.665Z,81.97
2023-05-06T19:14:15.329Z,80.72
2023-05-06T19:16:42.955Z,80.55
2023-05-06T19:19:10.565Z,79.75
2023-05-06T19:21:38.124Z,79.67
2023-05-06T19:24:07.125Z,79.82
2023-05-06T19:26:36.248Z,80.06
2023-05-06T19:29:03.842Z,79.93
2023-05-06T19:31:31.618Z,80.16
2023-05-06T19:33:59.308Z,80.35
2023-05-06T19:36:26.940Z,80.77
2023-05-06T19:38:54.485Z,80.76
2023-05-06T19:41:24.375Z,81.63
2023-05-06T19:43:52.057Z,81.85
2023-05-06T19:46:19.900Z,82.32
2023-05-06T19:48:47.635Z,82.47
2023-05-06T19:51:15.210Z,83.32
2023-05-06T19:53:42.884Z,83.85
2023-05-06T19:56:12.393Z,83.21
2023-05-06T19:58:40.526Z,83.35
2023-05-06T20:01:09.009Z,83.24
2023-05-06T20:03:37.055Z,83.28
2023-05-06T20:06:04.857Z,83.33
2023-05-06T20:08:32.411Z,83.90
2023-05-06T20:10:59.984Z,84.09
2023-05-06T20:13:27.694Z,83.87
2023-05-06T20:15:55.360Z,84.14
2023-05-06T20:18:23.094Z,84.38
2023-05-06T20:20:50.717Z,84.46
2023-05-06T20:23:18.457Z,84.57
2023-05-06T20:25:45.990Z,84.07
2023-05-06T20:28:13.575Z,84.04
2023-05-06T20:30:41.248Z,84.48
2023-05-06T20:33:09.007Z,84.19
2023-05-06T20:35:36.776Z,83.79
2023-05-06T20:38:04.446Z,83.86
2023-05-06T20:40:34.029Z,83.82
2023-05-06T20:43:01.609Z,84.06
2023-05-06T20:45:29.227Z,84.37
2023-05-06T20:47:57.113Z,84.07
2023-05-06T20:50:24.725Z,84.14
2023-05-06T20:52:52.259Z,84.40
2023-05-06T20:55:20.118Z,83.99
2023-05-06T20:57:47.653Z,84.22
2023-05-06T21:00:15.321Z,83.93
2023-05-06T21:02:43.006Z,84.18
2023-05-06T21:05:11.243Z,84.38
2023-05-06T21:07:39.123Z,84.34
2023-05-06T21:10:07.001Z,84.16
2023-05-06T21:12:34.583Z,84.50
2023-05-06T21:15:02.458Z,84.26
2023-05-06T21:17:30.089Z,84.46
2023-05-06T21:19:57.636Z,84.36
2023-05-06T21:22:25.656Z,84.14
2023-05-06T21:24:53.273Z,83.94
2023-05-06T21:27:20.971Z,84.17
2023-05-06T21:29:48.602Z,83.96
2023-05-06T21:32:16.190Z,83.99
2023-05-06T21:34:43.763Z,83.87
2023-05-06T21:37:11.372Z,83.87
2023-05-06T21:39:38.999Z,83.91
2023-05-06T21:42:06.540Z,84.16
2023-05-06T21:44:34.114Z,84.08
2023-05-06T21:47:01.770Z,84.01
2023-05-06T21:49:29.470Z,84.23
2023-05-06T21:51:57.051Z,83.94
2023-05-06T21:54:24.741Z,84.17
2023-05-06T21:56:52.330Z,84.43
2023-05-06T21:59:20.032Z,84.61
2023-05-06T22:01:47.635Z,84.59
2023-05-06T22:04:15.786Z,84.83
2023-05-06T22:06:43.334Z,85.19
2023-05-06T22:09:10.873Z,85.18
2023-05-06T22:11:38.642Z,84.84
2023-05-06T22:14:06.851Z,85.04
2023-05-06T22:16:35.237Z,85.31
2023-05-06T22:19:03.505Z,85.17
2023-05-06T22:21:31.050Z,85.28
2023-05-06T22:23:58.681Z,85.48
2023-05-06T22:26:26.556Z,85.27
2023-05-06T22:28:57.100Z,85.40
2023-05-06T22:31:25.184Z,85.15
2023-05-06T22:33:54.939Z,85.03
2023-05-06T22:36:22.536Z,85.61
2023-05-06T22:38:50.122Z,85.36
2023-05-06T22:41:17.698Z,84.97
2023-05-06T22:43:45.502Z,84.87
2023-05-06T22:46:13.794Z,85.19
2023-05-06T22:48:41.343Z,85.28
2023-05-06T22:51:08.905Z,85.14
2023-05-06T22:53:36.752Z,84.91
2023-05-06T22:56:04.526Z,85.10
2023-05-06T22:58:32.137Z,85.08
2023-05-06T23:01:00.147Z,85.19
2023-05-06T23:03:27.897Z,85.26
2023-05-06T23:05:55.634Z,85.12
2023-05-06T23:08:23.186Z,84.98
2023-05-06T23:10:50.732Z,85.12
2023-05-06T23:13:18.329Z,84.95
2023-05-06T23:15:45.888Z,84.94
2023-05-06T23:18:13.468Z,84.97
2023-05-06T23:20:40.986Z,84.98
2023-05-06T23:23:08.498Z,85.02
2023-05-06T23:25:36.439Z,84.87
2023-05-06T23:28:04.127Z,85.03
2023-05-06T23:30:31.682Z,85.03
2023-05-06T23:32:59.260Z,85.08
2023-05-06T23:35:26.821Z,84.88
2023-05-06T23:37:54.380Z,85.06
2023-05-06T23:40:22.084Z,85.01
2023-05-06T23:42:49.658Z,85.17
2023-05-06T23:45:17.279Z,85.38
2023-05-06T23:47:44.868Z,85.41
2023-05-06T23:50:12.908Z,85.16
2023-05-06T23:52:40.588Z,85.38
2023-05-06T23:55:08.543Z,85.55
2023-05-06T23:57:36.411Z,85.73
